sensor_id;sensor_type;location;lat;lon;timestamp;pressure;altitude;pressure_sealevel;temperature;humidity
76827;BME280;65788;52.284;20.890;2023-09-19T00:00:47;99769.05;;;23.75;55.18
76827;BME280;65788;52.284;20.890;2023-09-19T00:03:35;99764.73;;;23.71;55.30
76827;BME280;65788;52.284;20.890;2023-09-19T00:06:05;99760.86;;;23.69;55.30
76827;BME280;65788;52.284;20.890;2023-09-19T00:08:34;99762.41;;;23.67;55.36
76827;BME280;65788;52.284;20.890;2023-09-19T00:11:01;99759.80;;;23.63;55.49
76827;BME280;65788;52.284;20.890;2023-09-19T00:13:32;99756.37;;;23.67;55.38
76827;BME280;65788;52.284;20.890;2023-09-19T00:16:00;99755.92;;;23.67;55.44
76827;BME280;65788;52.284;20.890;2023-09-19T00:18:28;99760.80;;;23.69;55.26
76827;BME280;65788;52.284;20.890;2023-09-19T00:21:00;99757.23;;;23.69;55.20
76827;BME280;65788;52.284;20.890;2023-09-19T00:23:27;99763.50;;;23.70;55.30
76827;BME280;65788;52.284;20.890;2023-09-19T00:25:58;99757.80;;;23.70;55.21
76827;BME280;65788;52.284;20.890;2023-09-19T00:28:28;99755.02;;;23.64;55.44
76827;BME280;65788;52.284;20.890;2023-09-19T00:30:59;99753.31;;;23.62;55.36
76827;BME280;65788;52.284;20.890;2023-09-19T00:33:28;99752.65;;;23.62;55.44
76827;BME280;65788;52.284;20.890;2023-09-19T00:35:58;99748.14;;;23.63;55.45
76827;BME280;65788;52.284;20.890;2023-09-19T00:38:26;99752.81;;;23.61;55.45
76827;BME280;65788;52.284;20.890;2023-09-19T00:40:57;99750.67;;;23.61;55.51
76827;BME280;65788;52.284;20.890;2023-09-19T00:43:27;99747.05;;;23.61;55.45
76827;BME280;65788;52.284;20.890;2023-09-19T00:45:56;99743.39;;;23.58;55.39
76827;BME280;65788;52.284;20.890;2023-09-19T00:48:24;99744.14;;;23.60;55.43
76827;BME280;65788;52.284;20.890;2023-09-19T00:50:57;99742.13;;;23.62;55.49
76827;BME280;65788;52.284;20.890;2023-09-19T00:53:26;99746.67;;;23.62;55.43
76827;BME280;65788;52.284;20.890;2023-09-19T00:55:55;99742.43;;;23.63;55.17
76827;BME280;65788;52.284;20.890;2023-09-19T00:58:24;99743.38;;;23.61;55.39
76827;BME280;65788;52.284;20.890;2023-09-19T01:00:54;99744.94;;;23.62;55.39
76827;BME280;65788;52.284;20.890;2023-09-19T01:03:24;99745.67;;;23.63;55.33
76827;BME280;65788;52.284;20.890;2023-09-19T01:05:51;99738.64;;;23.64;55.39
76827;BME280;65788;52.284;20.890;2023-09-19T01:08:18;99732.79;;;23.64;55.37
76827;BME280;65788;52.284;20.890;2023-09-19T01:10:59;99734.50;;;23.63;55.38
76827;BME280;65788;52.284;20.890;2023-09-19T01:13:36;99731.08;;;23.60;55.35
76827;BME280;65788;52.284;20.890;2023-09-19T01:16:22;99727.61;;;23.61;55.35
76827;BME280;65788;52.284;20.890;2023-09-19T01:30:27;99711.33;;;23.57;55.42
76827;BME280;65788;52.284;20.890;2023-09-19T01:32:59;99706.14;;;23.58;55.39
76827;BME280;65788;52.284;20.890;2023-09-19T01:35:28;99706.66;;;23.60;55.31
76827;BME280;65788;52.284;20.890;2023-09-19T01:37:56;99702.08;;;23.60;55.34
76827;BME280;65788;52.284;20.890;2023-09-19T01:40:23;99701.02;;;23.59;55.31
76827;BME280;65788;52.284;20.890;2023-09-19T01:43:30;99698.39;;;23.61;55.32
76827;BME280;65788;52.284;20.890;2023-09-19T01:46:24;99699.33;;;23.57;55.39
76827;BME280;65788;52.284;20.890;2023-09-19T01:51:39;99687.98;;;23.55;55.41
76827;BME280;65788;52.284;20.890;2023-09-19T01:54:12;99686.41;;;23.54;55.39
76827;BME280;65788;52.284;20.890;2023-09-19T01:56:50;99680.08;;;23.53;55.43
76827;BME280;65788;52.284;20.890;2023-09-19T01:59:25;99685.13;;;23.56;55.40
76827;BME280;65788;52.284;20.890;2023-09-19T02:01:59;99679.72;;;23.56;55.34
76827;BME280;65788;52.284;20.890;2023-09-19T02:04:27;99683.19;;;23.57;55.33
76827;BME280;65788;52.284;20.890;2023-09-19T02:06:54;99685.19;;;23.58;55.34
76827;BME280;65788;52.284;20.890;2023-09-19T02:09:23;99680.06;;;23.58;55.27
76827;BME280;65788;52.284;20.890;2023-09-19T02:11:50;99680.73;;;23.58;55.37
76827;BME280;65788;52.284;20.890;2023-09-19T02:14:17;99678.05;;;23.59;55.69
76827;BME280;65788;52.284;20.890;2023-09-19T02:16:47;99678.55;;;23.59;55.95
76827;BME280;65788;52.284;20.890;2023-09-19T02:19:16;99674.08;;;23.58;55.98
76827;BME280;65788;52.284;20.890;2023-09-19T02:21:46;99669.73;;;23.58;55.87
76827;BME280;65788;52.284;20.890;2023-09-19T02:24:15;99669.81;;;23.55;56.12
76827;BME280;65788;52.284;20.890;2023-09-19T02:26:44;99669.88;;;23.55;56.15
76827;BME280;65788;52.284;20.890;2023-09-19T02:29:14;99668.63;;;23.52;56.17
76827;BME280;65788;52.284;20.890;2023-09-19T02:31:43;99661.39;;;23.56;56.04
76827;BME280;65788;52.284;20.890;2023-09-19T02:34:12;99657.26;;;23.56;56.11
76827;BME280;65788;52.284;20.890;2023-09-19T02:36:41;99652.79;;;23.56;55.95
76827;BME280;65788;52.284;20.890;2023-09-19T02:39:08;99652.12;;;23.56;55.93
76827;BME280;65788;52.284;20.890;2023-09-19T02:41:35;99647.94;;;23.56;55.84
76827;BME280;65788;52.284;20.890;2023-09-19T02:44:03;99651.50;;;23.56;55.92
76827;BME280;65788;52.284;20.890;2023-09-19T02:46:34;99650.70;;;23.55;56.03
76827;BME280;65788;52.284;20.890;2023-09-19T02:49:04;99650.05;;;23.57;55.75
76827;BME280;65788;52.284;20.890;2023-09-19T02:51:34;99648.48;;;23.56;55.82
76827;BME280;65788;52.284;20.890;2023-09-19T02:54:03;99647.98;;;23.56;55.84
76827;BME280;65788;52.284;20.890;2023-09-19T02:56:30;99646.69;;;23.54;55.84
76827;BME280;65788;52.284;20.890;2023-09-19T02:59:01;99642.20;;;23.54;55.73
76827;BME280;65788;52.284;20.890;2023-09-19T03:01:29;99643.73;;;23.54;55.88
76827;BME280;65788;52.284;20.890;2023-09-19T03:03:56;99641.48;;;23.53;55.79
76827;BME280;65788;52.284;20.890;2023-09-19T03:06:24;99645.00;;;23.53;55.83
76827;BME280;65788;52.284;20.890;2023-09-19T03:08:51;99639.14;;;23.53;55.80
76827;BME280;65788;52.284;20.890;2023-09-19T03:11:18;99633.01;;;23.54;55.66
76827;BME280;65788;52.284;20.890;2023-09-19T03:13:52;99632.06;;;23.55;55.89
76827;BME280;65788;52.284;20.890;2023-09-19T03:16:19;99628.64;;;23.54;55.69
76827;BME280;65788;52.284;20.890;2023-09-19T03:18:50;99633.50;;;23.54;55.81
76827;BME280;65788;52.284;20.890;2023-09-19T03:21:20;99627.55;;;23.55;55.73
76827;BME280;65788;52.284;20.890;2023-09-19T03:23:49;99633.34;;;23.54;55.75
76827;BME280;65788;52.284;20.890;2023-09-19T03:26:16;99631.89;;;23.54;55.71
76827;BME280;65788;52.284;20.890;2023-09-19T03:28:43;99625.86;;;23.55;55.69
76827;BME280;65788;52.284;20.890;2023-09-19T03:31:14;99625.56;;;23.54;55.69
76827;BME280;65788;52.284;20.890;2023-09-19T03:33:41;99625.58;;;23.54;55.66
76827;BME280;65788;52.284;20.890;2023-09-19T03:36:08;99621.27;;;23.53;55.79
76827;BME280;65788;52.284;20.890;2023-09-19T03:38:36;99618.30;;;23.51;55.89
76827;BME280;65788;52.284;20.890;2023-09-19T03:41:03;99615.23;;;23.51;55.77
76827;BME280;65788;52.284;20.890;2023-09-19T03:43:32;99618.79;;;23.50;55.91
76827;BME280;65788;52.284;20.890;2023-09-19T03:46:03;99610.35;;;23.50;55.71
76827;BME280;65788;52.284;20.890;2023-09-19T03:48:31;99614.39;;;23.50;55.73
76827;BME280;65788;52.284;20.890;2023-09-19T03:51:00;99616.45;;;23.50;55.71
76827;BME280;65788;52.284;20.890;2023-09-19T03:53:27;99611.73;;;23.47;55.73
76827;BME280;65788;52.284;20.890;2023-09-19T03:55:53;99615.32;;;23.48;55.72
76827;BME280;65788;52.284;20.890;2023-09-19T03:58:22;99619.61;;;23.48;55.62
76827;BME280;65788;52.284;20.890;2023-09-19T04:00:48;99612.92;;;23.48;55.60
76827;BME280;65788;52.284;20.890;2023-09-19T04:03:16;99604.70;;;23.48;55.60
76827;BME280;65788;52.284;20.890;2023-09-19T04:05:48;99600.41;;;23.47;55.56
76827;BME280;65788;52.284;20.890;2023-09-19T04:08:15;99598.73;;;23.48;55.53
76827;BME280;65788;52.284;20.890;2023-09-19T04:10:43;99594.86;;;23.46;55.55
76827;BME280;65788;52.284;20.890;2023-09-19T04:13:11;99587.83;;;23.46;55.62
76827;BME280;65788;52.284;20.890;2023-09-19T04:15:38;99584.42;;;23.46;55.55
76827;BME280;65788;52.284;20.890;2023-09-19T04:18:07;99585.97;;;23.45;55.55
76827;BME280;65788;52.284;20.890;2023-09-19T04:20:35;99584.19;;;23.44;55.56
76827;BME280;65788;52.284;20.890;2023-09-19T04:23:02;99581.73;;;23.44;55.51
76827;BME280;65788;52.284;20.890;2023-09-19T04:25:29;99585.91;;;23.43;55.56
76827;BME280;65788;52.284;20.890;2023-09-19T04:27:57;99586.80;;;23.42;55.54
76827;BME280;65788;52.284;20.890;2023-09-19T04:30:24;99585.16;;;23.41;55.50
76827;BME280;65788;52.284;20.890;2023-09-19T04:32:51;99583.02;;;23.43;55.44
76827;BME280;65788;52.284;20.890;2023-09-19T04:35:21;99578.27;;;23.44;55.53
76827;BME280;65788;52.284;20.890;2023-09-19T04:37:50;99575.64;;;23.43;55.39
76827;BME280;65788;52.284;20.890;2023-09-19T04:40:17;99576.86;;;23.42;55.43
76827;BME280;65788;52.284;20.890;2023-09-19T04:42:53;99574.95;;;23.41;55.36
76827;BME280;65788;52.284;20.890;2023-09-19T04:45:26;99577.35;;;23.40;55.47
76827;BME280;65788;52.284;20.890;2023-09-19T04:47:53;99574.84;;;23.40;55.39
76827;BME280;65788;52.284;20.890;2023-09-19T04:50:23;99573.73;;;23.41;55.42
76827;BME280;65788;52.284;20.890;2023-09-19T04:52:54;99575.62;;;23.41;55.36
76827;BME280;65788;52.284;20.890;2023-09-19T04:55:22;99574.46;;;23.42;55.47
76827;BME280;65788;52.284;20.890;2023-09-19T04:57:50;99576.67;;;23.40;55.39
76827;BME280;65788;52.284;20.890;2023-09-19T05:00:18;99577.90;;;23.39;55.45
76827;BME280;65788;52.284;20.890;2023-09-19T05:02:49;99573.89;;;23.40;55.44
76827;BME280;65788;52.284;20.890;2023-09-19T05:05:16;99573.95;;;23.39;55.36
76827;BME280;65788;52.284;20.890;2023-09-19T05:07:46;99572.87;;;23.39;55.33
76827;BME280;65788;52.284;20.890;2023-09-19T05:10:14;99570.52;;;23.38;55.39
76827;BME280;65788;52.284;20.890;2023-09-19T05:12:43;99569.30;;;23.38;55.26
76827;BME280;65788;52.284;20.890;2023-09-19T05:15:13;99567.80;;;23.39;55.34
76827;BME280;65788;52.284;20.890;2023-09-19T05:17:51;99565.39;;;23.38;55.31
76827;BME280;65788;52.284;20.890;2023-09-19T05:20:22;99566.02;;;23.38;55.43
76827;BME280;65788;52.284;20.890;2023-09-19T05:23:06;99563.71;;;23.37;55.31
76827;BME280;65788;52.284;20.890;2023-09-19T05:25:41;99565.66;;;23.36;55.23
76827;BME280;65788;52.284;20.890;2023-09-19T05:28:10;99565.55;;;23.37;55.39
76827;BME280;65788;52.284;20.890;2023-09-19T05:30:42;99569.41;;;23.39;55.41
76827;BME280;65788;52.284;20.890;2023-09-19T05:33:09;99565.95;;;23.40;55.51
76827;BME280;65788;52.284;20.890;2023-09-19T05:35:36;99566.13;;;23.40;55.53
76827;BME280;65788;52.284;20.890;2023-09-19T05:38:09;99568.20;;;23.41;55.86
76827;BME280;65788;52.284;20.890;2023-09-19T05:40:38;99567.41;;;23.40;56.02
76827;BME280;65788;52.284;20.890;2023-09-19T05:43:08;99568.50;;;23.34;55.79
76827;BME280;65788;52.284;20.890;2023-09-19T05:45:35;99569.81;;;23.31;56.03
76827;BME280;65788;52.284;20.890;2023-09-19T05:48:13;99575.19;;;23.34;55.98
76827;BME280;65788;52.284;20.890;2023-09-19T05:50:44;99570.58;;;23.38;55.99
76827;BME280;65788;52.284;20.890;2023-09-19T05:53:13;99574.48;;;23.36;56.19
76827;BME280;65788;52.284;20.890;2023-09-19T05:55:42;99579.02;;;23.41;56.17
76827;BME280;65788;52.284;20.890;2023-09-19T05:58:09;99585.42;;;23.37;56.29
76827;BME280;65788;52.284;20.890;2023-09-19T06:00:37;99585.19;;;23.36;56.40
76827;BME280;65788;52.284;20.890;2023-09-19T06:03:05;99586.33;;;23.38;56.19
76827;BME280;65788;52.284;20.890;2023-09-19T06:05:32;99593.17;;;23.41;56.37
76827;BME280;65788;52.284;20.890;2023-09-19T06:08:04;99591.77;;;23.41;56.08
76827;BME280;65788;52.284;20.890;2023-09-19T06:10:34;99594.29;;;23.44;56.38
76827;BME280;65788;52.284;20.890;2023-09-19T06:13:04;99594.17;;;23.43;56.42
76827;BME280;65788;52.284;20.890;2023-09-19T06:15:31;99592.77;;;23.44;56.47
76827;BME280;65788;52.284;20.890;2023-09-19T06:18:02;99590.83;;;23.44;56.66
76827;BME280;65788;52.284;20.890;2023-09-19T06:20:31;99591.29;;;23.45;56.25
76827;BME280;65788;52.284;20.890;2023-09-19T06:23:02;99594.34;;;23.45;56.34
76827;BME280;65788;52.284;20.890;2023-09-19T06:25:29;99595.64;;;23.44;56.39
76827;BME280;65788;52.284;20.890;2023-09-19T06:27:56;99597.59;;;23.45;56.22
76827;BME280;65788;52.284;20.890;2023-09-19T06:30:25;99595.58;;;23.45;56.23
76827;BME280;65788;52.284;20.890;2023-09-19T06:32:56;99599.99;;;23.44;56.26
76827;BME280;65788;52.284;20.890;2023-09-19T06:35:25;99600.23;;;23.39;56.31
76827;BME280;65788;52.284;20.890;2023-09-19T06:37:53;99606.83;;;23.39;56.43
76827;BME280;65788;52.284;20.890;2023-09-19T06:40:23;99605.70;;;23.45;56.31
76827;BME280;65788;52.284;20.890;2023-09-19T06:42:51;99597.81;;;23.45;56.39
76827;BME280;65788;52.284;20.890;2023-09-19T06:45:23;99602.78;;;23.45;56.77
76827;BME280;65788;52.284;20.890;2023-09-19T06:47:53;99607.54;;;23.46;56.71
76827;BME280;65788;52.284;20.890;2023-09-19T06:50:24;99612.01;;;23.47;56.91
76827;BME280;65788;52.284;20.890;2023-09-19T06:52:52;99609.08;;;23.44;56.90
76827;BME280;65788;52.284;20.890;2023-09-19T06:55:22;99611.10;;;23.44;56.66
76827;BME280;65788;52.284;20.890;2023-09-19T06:57:51;99608.23;;;23.41;56.85
76827;BME280;65788;52.284;20.890;2023-09-19T07:00:22;99617.66;;;23.31;57.05
76827;BME280;65788;52.284;20.890;2023-09-19T07:03:02;99618.79;;;23.27;57.07
76827;BME280;65788;52.284;20.890;2023-09-19T07:05:36;99616.52;;;23.11;57.52
76827;BME280;65788;52.284;20.890;2023-09-19T07:08:05;99622.60;;;22.90;57.94
76827;BME280;65788;52.284;20.890;2023-09-19T07:10:35;99621.50;;;23.04;57.58
76827;BME280;65788;52.284;20.890;2023-09-19T07:13:04;99625.58;;;22.98;57.70
76827;BME280;65788;52.284;20.890;2023-09-19T07:15:35;99622.81;;;22.96;57.71
76827;BME280;65788;52.284;20.890;2023-09-19T07:18:10;99622.42;;;22.90;57.90
76827;BME280;65788;52.284;20.890;2023-09-19T07:20:40;99626.88;;;22.95;57.82
76827;BME280;65788;52.284;20.890;2023-09-19T07:23:13;99629.42;;;22.94;57.72
76827;BME280;65788;52.284;20.890;2023-09-19T07:25:45;99634.84;;;22.87;57.93
76827;BME280;65788;52.284;20.890;2023-09-19T07:28:14;99638.38;;;22.84;58.00
76827;BME280;65788;52.284;20.890;2023-09-19T07:30:41;99641.02;;;22.80;58.17
76827;BME280;65788;52.284;20.890;2023-09-19T07:33:08;99642.16;;;22.77;58.11
76827;BME280;65788;52.284;20.890;2023-09-19T07:35:39;99644.12;;;22.95;57.57
76827;BME280;65788;52.284;20.890;2023-09-19T07:38:08;99646.92;;;23.09;57.63
76827;BME280;65788;52.284;20.890;2023-09-19T07:40:39;99652.54;;;23.11;57.65
76827;BME280;65788;52.284;20.890;2023-09-19T07:43:06;99654.45;;;23.18;57.59
76827;BME280;65788;52.284;20.890;2023-09-19T07:45:33;99651.98;;;23.22;57.41
76827;BME280;65788;52.284;20.890;2023-09-19T07:48:02;99653.61;;;23.30;57.29
76827;BME280;65788;52.284;20.890;2023-09-19T07:50:31;99658.89;;;23.28;57.61
76827;BME280;65788;52.284;20.890;2023-09-19T07:53:01;99664.09;;;23.35;57.19
76827;BME280;65788;52.284;20.890;2023-09-19T07:55:28;99670.43;;;23.49;56.28
76827;BME280;65788;52.284;20.890;2023-09-19T07:57:55;99672.93;;;23.70;54.41
76827;BME280;65788;52.284;20.890;2023-09-19T08:00:23;99672.45;;;23.79;54.20
76827;BME280;65788;52.284;20.890;2023-09-19T08:02:50;99672.00;;;23.88;53.89
76827;BME280;65788;52.284;20.890;2023-09-19T08:05:18;99672.11;;;23.92;53.72
76827;BME280;65788;52.284;20.890;2023-09-19T08:07:46;99670.90;;;23.97;53.31
76827;BME280;65788;52.284;20.890;2023-09-19T08:10:16;99667.75;;;23.94;53.73
76827;BME280;65788;52.284;20.890;2023-09-19T08:12:48;99669.52;;;24.00;53.57
76827;BME280;65788;52.284;20.890;2023-09-19T08:15:17;99675.02;;;24.04;53.27
76827;BME280;65788;52.284;20.890;2023-09-19T08:17:47;99673.48;;;24.10;53.16
76827;BME280;65788;52.284;20.890;2023-09-19T08:20:15;99677.73;;;24.10;53.13
76827;BME280;65788;52.284;20.890;2023-09-19T08:22:51;99684.27;;;24.09;53.22
76827;BME280;65788;52.284;20.890;2023-09-19T08:25:19;99694.52;;;24.24;53.81
76827;BME280;65788;52.284;20.890;2023-09-19T08:27:48;99703.42;;;24.28;52.59
76827;BME280;65788;52.284;20.890;2023-09-19T08:30:17;99707.88;;;24.26;52.66
76827;BME280;65788;52.284;20.890;2023-09-19T08:32:46;99705.59;;;24.25;52.69
76827;BME280;65788;52.284;20.890;2023-09-19T08:35:14;99707.44;;;24.26;52.69
76827;BME280;65788;52.284;20.890;2023-09-19T08:37:42;99711.94;;;24.31;52.63
76827;BME280;65788;52.284;20.890;2023-09-19T08:40:13;99707.88;;;24.35;52.28
76827;BME280;65788;52.284;20.890;2023-09-19T08:45:17;99700.50;;;24.37;52.38
76827;BME280;65788;52.284;20.890;2023-09-19T08:48:00;99699.40;;;24.40;52.33
76827;BME280;65788;52.284;20.890;2023-09-19T08:50:33;99692.42;;;24.31;52.58
76827;BME280;65788;52.284;20.890;2023-09-19T08:53:13;99688.39;;;24.30;52.83
76827;BME280;65788;52.284;20.890;2023-09-19T08:55:43;99687.13;;;24.24;52.83
76827;BME280;65788;52.284;20.890;2023-09-19T08:58:13;99687.07;;;24.22;52.98
76827;BME280;65788;52.284;20.890;2023-09-19T09:00:48;99690.41;;;24.22;52.83
76827;BME280;65788;52.284;20.890;2023-09-19T09:05:44;99684.33;;;24.34;53.21
76827;BME280;65788;52.284;20.890;2023-09-19T09:08:14;99692.01;;;24.36;52.65
76827;BME280;65788;52.284;20.890;2023-09-19T09:10:44;99693.17;;;24.36;52.67
76827;BME280;65788;52.284;20.890;2023-09-19T09:13:12;99684.16;;;24.34;52.83
76827;BME280;65788;52.284;20.890;2023-09-19T09:15:41;99688.92;;;24.40;52.78
76827;BME280;65788;52.284;20.890;2023-09-19T09:18:11;99695.71;;;24.45;52.68
76827;BME280;65788;52.284;20.890;2023-09-19T09:20:38;99707.10;;;24.52;52.55
76827;BME280;65788;52.284;20.890;2023-09-19T09:23:05;99715.89;;;24.53;52.54
76827;BME280;65788;52.284;20.890;2023-09-19T09:25:54;99722.98;;;24.52;52.54
76827;BME280;65788;52.284;20.890;2023-09-19T09:28:26;99739.38;;;24.51;52.65
76827;BME280;65788;52.284;20.890;2023-09-19T09:30:54;99748.94;;;24.52;53.05
76827;BME280;65788;52.284;20.890;2023-09-19T09:33:21;99752.81;;;24.53;52.69
76827;BME280;65788;52.284;20.890;2023-09-19T09:35:59;99758.76;;;24.58;52.74
76827;BME280;65788;52.284;20.890;2023-09-19T09:38:28;99763.83;;;24.62;53.12
76827;BME280;65788;52.284;20.890;2023-09-19T09:41:00;99757.31;;;24.58;52.55
76827;BME280;65788;52.284;20.890;2023-09-19T09:43:35;99747.96;;;24.59;52.72
76827;BME280;65788;52.284;20.890;2023-09-19T09:49:04;99742.69;;;24.63;52.41
76827;BME280;65788;52.284;20.890;2023-09-19T09:51:58;99755.35;;;24.63;52.33
76827;BME280;65788;52.284;20.890;2023-09-19T09:54:27;99759.73;;;24.62;52.36
76827;BME280;65788;52.284;20.890;2023-09-19T09:57:05;99770.17;;;24.30;55.27
76827;BME280;65788;52.284;20.890;2023-09-19T09:59:54;99772.55;;;24.23;54.22
76827;BME280;65788;52.284;20.890;2023-09-19T10:02:27;99764.41;;;24.47;53.02
76827;BME280;65788;52.284;20.890;2023-09-19T10:05:16;99767.34;;;24.40;54.19
76827;BME280;65788;52.284;20.890;2023-09-19T10:07:50;99766.58;;;24.42;53.20
76827;BME280;65788;52.284;20.890;2023-09-19T10:10:39;99763.38;;;24.12;56.22
76827;BME280;65788;52.284;20.890;2023-09-19T10:13:13;99758.13;;;24.21;54.69
76827;BME280;65788;52.284;20.890;2023-09-19T10:15:48;99757.90;;;24.22;55.43
76827;BME280;65788;52.284;20.890;2023-09-19T10:18:22;99751.25;;;23.98;55.76
76827;BME280;65788;52.284;20.890;2023-09-19T10:20:50;99751.86;;;24.22;54.71
76827;BME280;65788;52.284;20.890;2023-09-19T10:23:18;99757.01;;;24.33;55.88
76827;BME280;65788;52.284;20.890;2023-09-19T10:25:53;99759.38;;;24.48;54.53
76827;BME280;65788;52.284;20.890;2023-09-19T10:28:21;99769.02;;;24.51;53.48
76827;BME280;65788;52.284;20.890;2023-09-19T10:30:50;99766.18;;;24.53;53.90
76827;BME280;65788;52.284;20.890;2023-09-19T10:33:22;99767.15;;;24.58;53.55
76827;BME280;65788;52.284;20.890;2023-09-19T10:35:53;99762.61;;;24.59;53.55
76827;BME280;65788;52.284;20.890;2023-09-19T10:38:24;99761.67;;;24.66;53.37
76827;BME280;65788;52.284;20.890;2023-09-19T10:40:53;99766.67;;;24.72;53.50
76827;BME280;65788;52.284;20.890;2023-09-19T10:43:22;99766.13;;;24.75;53.64
76827;BME280;65788;52.284;20.890;2023-09-19T10:45:52;99766.04;;;24.79;53.22
76827;BME280;65788;52.284;20.890;2023-09-19T10:48:21;99770.45;;;24.79;53.07
76827;BME280;65788;52.284;20.890;2023-09-19T10:53:59;99770.85;;;24.82;53.27
76827;BME280;65788;52.284;20.890;2023-09-19T10:56:36;99773.21;;;24.49;54.98
76827;BME280;65788;52.284;20.890;2023-09-19T10:59:14;99782.61;;;24.08;57.47
76827;BME280;65788;52.284;20.890;2023-09-19T11:01:49;99792.42;;;24.17;56.72
76827;BME280;65788;52.284;20.890;2023-09-19T11:04:30;99793.77;;;24.20;56.99
76827;BME280;65788;52.284;20.890;2023-09-19T11:07:12;99793.86;;;23.60;59.63
76827;BME280;65788;52.284;20.890;2023-09-19T11:09:53;99791.10;;;23.90;58.51
76827;BME280;65788;52.284;20.890;2023-09-19T11:14:52;99791.59;;;23.10;62.19
76827;BME280;65788;52.284;20.890;2023-09-19T11:30:53;99782.12;;;22.96;62.30
76827;BME280;65788;52.284;20.890;2023-09-19T11:33:28;99781.69;;;23.25;61.35
76827;BME280;65788;52.284;20.890;2023-09-19T11:46:27;99797.48;;;23.06;62.20
76827;BME280;65788;52.284;20.890;2023-09-19T11:48:54;99796.05;;;23.21;61.64
76827;BME280;65788;52.284;20.890;2023-09-19T11:51:24;99796.00;;;23.32;61.28
76827;BME280;65788;52.284;20.890;2023-09-19T11:53:55;99796.59;;;23.12;62.13
76827;BME280;65788;52.284;20.890;2023-09-19T11:56:25;99798.96;;;23.13;62.21
76827;BME280;65788;52.284;20.890;2023-09-19T11:58:55;99799.39;;;23.07;62.40
76827;BME280;65788;52.284;20.890;2023-09-19T12:01:31;99799.29;;;23.08;62.13
76827;BME280;65788;52.284;20.890;2023-09-19T12:04:01;99806.40;;;23.14;62.34
76827;BME280;65788;52.284;20.890;2023-09-19T12:06:33;99806.77;;;23.22;61.85
76827;BME280;65788;52.284;20.890;2023-09-19T12:09:02;99806.83;;;23.22;61.93
76827;BME280;65788;52.284;20.890;2023-09-19T12:11:41;99810.54;;;23.35;61.76
76827;BME280;65788;52.284;20.890;2023-09-19T12:14:10;99810.60;;;23.52;62.04
76827;BME280;65788;52.284;20.890;2023-09-19T12:16:38;99813.52;;;23.35;62.64
76827;BME280;65788;52.284;20.890;2023-09-19T12:19:20;99821.51;;;22.81;64.50
76827;BME280;65788;52.284;20.890;2023-09-19T12:21:55;99821.14;;;22.43;65.81
76827;BME280;65788;52.284;20.890;2023-09-19T12:24:26;99821.52;;;22.82;64.30
76827;BME280;65788;52.284;20.890;2023-09-19T12:27:01;99824.13;;;23.04;63.62
76827;BME280;65788;52.284;20.890;2023-09-19T12:29:28;99821.08;;;23.55;60.63
76827;BME280;65788;52.284;20.890;2023-09-19T12:31:58;99820.57;;;23.51;60.89
76827;BME280;65788;52.284;20.890;2023-09-19T12:34:27;99821.92;;;23.40;61.76
76827;BME280;65788;52.284;20.890;2023-09-19T12:39:32;99818.10;;;23.95;57.87
76827;BME280;65788;52.284;20.890;2023-09-19T12:41:59;99821.02;;;23.97;58.37
76827;BME280;65788;52.284;20.890;2023-09-19T12:44:26;99823.59;;;23.93;58.57
76827;BME280;65788;52.284;20.890;2023-09-19T12:46:53;99826.30;;;24.01;58.21
76827;BME280;65788;52.284;20.890;2023-09-19T12:49:21;99828.05;;;23.74;59.39
76827;BME280;65788;52.284;20.890;2023-09-19T12:51:54;99828.69;;;22.94;63.29
76827;BME280;65788;52.284;20.890;2023-09-19T12:54:21;99830.02;;;22.97;63.96
76827;BME280;65788;52.284;20.890;2023-09-19T12:56:49;99828.17;;;22.74;64.80
76827;BME280;65788;52.284;20.890;2023-09-19T12:59:17;99828.16;;;22.70;65.26
76827;BME280;65788;52.284;20.890;2023-09-19T13:01:44;99825.23;;;22.81;64.64
76827;BME280;65788;52.284;20.890;2023-09-19T13:06:48;99821.20;;;23.02;64.26
76827;BME280;65788;52.284;20.890;2023-09-19T13:09:15;99821.85;;;23.44;61.28
76827;BME280;65788;52.284;20.890;2023-09-19T13:11:44;99821.98;;;23.52;61.50
76827;BME280;65788;52.284;20.890;2023-09-19T13:14:19;99820.91;;;23.68;60.27
76827;BME280;65788;52.284;20.890;2023-09-19T13:16:54;99821.24;;;23.63;61.58
76827;BME280;65788;52.284;20.890;2023-09-19T13:19:42;99819.71;;;23.53;61.41
76827;BME280;65788;52.284;20.890;2023-09-19T13:25:17;99822.29;;;23.44;61.51
76827;BME280;65788;52.284;20.890;2023-09-19T13:27:46;99823.02;;;23.55;60.61
76827;BME280;65788;52.284;20.890;2023-09-19T13:30:15;99822.17;;;23.60;59.81
76827;BME280;65788;52.284;20.890;2023-09-19T13:32:42;99827.69;;;23.84;58.23
76827;BME280;65788;52.284;20.890;2023-09-19T13:35:10;99831.08;;;23.92;58.31
76827;BME280;65788;52.284;20.890;2023-09-19T13:37:39;99830.02;;;23.91;58.29
76827;BME280;65788;52.284;20.890;2023-09-19T13:40:12;99832.10;;;23.92;57.88
76827;BME280;65788;52.284;20.890;2023-09-19T13:42:40;99832.47;;;23.91;58.54
76827;BME280;65788;52.284;20.890;2023-09-19T13:45:08;99830.45;;;23.44;61.80
76827;BME280;65788;52.284;20.890;2023-09-19T13:47:39;99833.53;;;23.88;59.59
76827;BME280;65788;52.284;20.890;2023-09-19T13:50:06;99830.23;;;24.84;56.07
76827;BME280;65788;52.284;20.890;2023-09-19T13:52:34;99823.45;;;25.07;54.22
76827;BME280;65788;52.284;20.890;2023-09-19T13:55:01;99827.91;;;25.17;53.93
76827;BME280;65788;52.284;20.890;2023-09-19T13:57:28;99827.00;;;25.16;54.16
76827;BME280;65788;52.284;20.890;2023-09-19T13:59:56;99826.85;;;25.22;53.96
76827;BME280;65788;52.284;20.890;2023-09-19T14:02:23;99823.38;;;25.23;54.10
76827;BME280;65788;52.284;20.890;2023-09-19T14:04:51;99824.64;;;25.15;54.08
76827;BME280;65788;52.284;20.890;2023-09-19T14:07:18;99821.39;;;25.14;54.01